createdAt,value
2019-03-28T00:00:02.001Z,0.00
2019-03-28T00:01:01.987Z,0.00
2019-03-28T00:02:01.978Z,0.00
2019-03-28T00:03:02.145Z,0.00
2019-03-28T00:04:01.955Z,0.00
2019-03-28T00:05:01.943Z,0.00
2019-03-28T00:06:01.936Z,0.00
2019-03-28T00:07:01.921Z,0.00
2019-03-28T00:08:01.912Z,0.00
2019-03-28T00:09:01.900Z,0.00
2019-03-28T00:10:02.558Z,0.00
2019-03-28T00:11:01.887Z,0.00
2019-03-28T00:12:01.867Z,0.00
2019-03-28T00:13:01.857Z,0.00
2019-03-28T00:14:01.846Z,0.00
2019-03-28T00:15:01.837Z,0.00
2019-03-28T00:16:01.826Z,0.00
2019-03-28T00:17:01.813Z,0.00
2019-03-28T00:18:02.330Z,0.00
2019-03-28T00:19:01.794Z,0.00
2019-03-28T00:20:01.784Z,0.00
2019-03-28T00:21:01.771Z,0.00
2019-03-28T00:22:01.760Z,0.00
2019-03-28T00:23:01.749Z,0.00
2019-03-28T00:24:01.737Z,0.00
2019-03-28T00:25:01.726Z,0.00
2019-03-28T00:26:01.717Z,0.00
2019-03-28T00:27:01.705Z,0.00
2019-03-28T00:28:01.695Z,0.00
2019-03-28T00:29:02.281Z,0.00
2019-03-28T00:30:01.677Z,0.00
2019-03-28T00:31:01.665Z,0.00
2019-03-28T00:32:01.654Z,0.00
2019-03-28T00:33:01.640Z,0.00
2019-03-28T00:34:01.632Z,0.00
2019-03-28T00:35:01.619Z,0.00
2019-03-28T00:36:01.607Z,0.00
2019-03-28T00:37:01.597Z,0.00
2019-03-28T00:38:01.586Z,0.00
2019-03-28T00:39:01.574Z,0.00
2019-03-28T00:40:01.688Z,0.00
2019-03-28T00:41:01.555Z,0.00
2019-03-28T00:42:01.549Z,0.00
2019-03-28T00:43:01.535Z,0.00
2019-03-28T00:44:01.521Z,0.00
2019-03-28T00:45:01.521Z,0.00
2019-03-28T00:46:01.499Z,0.00
2019-03-28T00:47:01.487Z,0.00
2019-03-28T00:48:01.477Z,0.00
2019-03-28T00:49:01.466Z,0.00
2019-03-28T00:50:01.456Z,0.00
2019-03-28T00:51:01.445Z,0.00
2019-03-28T00:52:01.433Z,0.00
2019-03-28T00:53:01.424Z,0.00
2019-03-28T00:54:01.412Z,0.00
2019-03-28T00:55:01.405Z,0.00
2019-03-28T00:56:01.391Z,0.00
2019-03-28T00:57:01.379Z,0.00
2019-03-28T00:58:01.368Z,0.00
2019-03-28T00:59:01.359Z,0.00
2019-03-28T01:00:01.356Z,0.00
2019-03-28T01:01:01.337Z,0.00
2019-03-28T01:02:01.331Z,0.00
2019-03-28T01:03:01.315Z,0.00
2019-03-28T01:04:01.307Z,0.00
2019-03-28T01:05:01.293Z,0.00
2019-03-28T01:06:01.282Z,0.00
2019-03-28T01:07:01.271Z,0.00
2019-03-28T01:08:01.262Z,0.00
2019-03-28T01:09:04.066Z,0.00
2019-03-28T01:10:01.239Z,0.00
2019-03-28T01:11:01.227Z,0.00
2019-03-28T01:12:01.727Z,0.00
2019-03-28T01:13:01.208Z,0.00
2019-03-28T01:14:01.201Z,0.00
2019-03-28T01:15:01.186Z,0.00
2019-03-28T01:16:01.179Z,0.00
2019-03-28T01:17:01.165Z,0.00
2019-03-28T01:18:01.150Z,0.00
2019-03-28T01:19:01.143Z,0.00
2019-03-28T01:20:01.129Z,0.00
2019-03-28T01:21:01.122Z,0.00
2019-03-28T01:22:01.114Z,0.00
2019-03-28T01:23:01.100Z,0.00
2019-03-28T01:24:01.087Z,0.00
2019-03-28T01:25:01.756Z,0.00
2019-03-28T01:26:01.066Z,0.00
2019-03-28T01:27:01.054Z,0.00
2019-03-28T01:28:01.043Z,0.00
2019-03-28T01:29:01.032Z,0.00
2019-03-28T01:30:01.023Z,0.00
2019-03-28T01:31:01.011Z,0.00
2019-03-28T01:32:01.002Z,0.00
2019-03-28T01:33:00.990Z,0.00
2019-03-28T01:34:00.977Z,0.00
2019-03-28T01:35:00.974Z,0.00
2019-03-28T01:36:00.956Z,0.00
2019-03-28T01:37:00.952Z,0.00
2019-03-28T01:38:00.934Z,0.00
2019-03-28T01:39:00.924Z,0.00
2019-03-28T01:40:00.913Z,0.00
2019-03-28T01:41:00.902Z,0.00
2019-03-28T01:42:00.891Z,0.00
2019-03-28T01:43:00.882Z,0.00
2019-03-28T01:44:00.872Z,0.00
2019-03-28T01:45:00.860Z,0.00
2019-03-28T01:46:00.850Z,0.00
2019-03-28T01:47:00.837Z,0.00
2019-03-28T01:48:00.827Z,0.00
2019-03-28T01:49:03.599Z,0.00
2019-03-28T01:50:00.806Z,0.00
2019-03-28T01:51:00.794Z,0.00
2019-03-28T01:52:00.785Z,0.00
2019-03-28T01:53:00.773Z,0.00
2019-03-28T01:54:00.763Z,0.00
2019-03-28T01:55:00.750Z,0.00
2019-03-28T01:56:00.739Z,0.00
2019-03-28T01:57:10.350Z,0.00
2019-03-28T01:58:01.724Z,0.00
2019-03-28T01:59:00.707Z,0.00
2019-03-28T02:00:00.698Z,0.00
2019-03-28T02:01:02.908Z,0.00
2019-03-28T02:02:00.676Z,0.00
2019-03-28T02:03:00.667Z,0.00
2019-03-28T02:04:00.653Z,0.00
2019-03-28T02:05:00.642Z,0.00
2019-03-28T02:06:00.630Z,0.00
2019-03-28T02:07:00.620Z,0.00
2019-03-28T02:08:02.736Z,0.00
2019-03-28T02:09:00.600Z,0.00
2019-03-28T02:10:00.591Z,0.00
2019-03-28T02:11:00.578Z,0.00
2019-03-28T02:12:00.564Z,0.00
2019-03-28T02:13:00.556Z,0.00
2019-03-28T02:14:00.545Z,0.00
2019-03-28T02:15:00.535Z,0.00
2019-03-28T02:16:00.522Z,0.00
2019-03-28T02:17:00.513Z,0.00
2019-03-28T02:18:00.500Z,0.00
2019-03-28T02:19:00.493Z,0.00
2019-03-28T02:20:00.479Z,0.00
2019-03-28T02:21:01.274Z,0.00
2019-03-28T02:22:00.461Z,0.00
2019-03-28T02:23:00.449Z,0.00
2019-03-28T02:24:01.269Z,0.00
2019-03-28T02:25:00.425Z,0.00
2019-03-28T02:26:00.415Z,0.00
2019-03-28T02:27:00.405Z,0.00
2019-03-28T02:28:00.397Z,0.00
2019-03-28T02:29:00.381Z,0.00
2019-03-28T02:30:00.550Z,0.00
2019-03-28T02:31:00.361Z,0.00
2019-03-28T02:32:00.352Z,0.00
2019-03-28T02:33:00.339Z,0.00
2019-03-28T02:34:00.328Z,0.00
2019-03-28T02:35:00.628Z,0.00
2019-03-28T02:36:00.317Z,0.00
2019-03-28T02:37:00.298Z,0.00
2019-03-28T02:38:00.288Z,0.00
2019-03-28T02:39:00.274Z,0.00
2019-03-28T02:40:00.503Z,0.00
2019-03-28T02:41:00.254Z,0.00
2019-03-28T02:42:00.278Z,0.00
2019-03-28T02:43:00.239Z,0.00
2019-03-28T02:44:00.221Z,0.00
2019-03-28T02:45:00.496Z,0.00
2019-03-28T02:46:00.202Z,0.00
2019-03-28T02:47:00.189Z,0.00
2019-03-28T02:48:00.178Z,0.00
2019-03-28T02:49:00.169Z,0.00
2019-03-28T02:50:00.442Z,0.00
2019-03-28T02:51:00.143Z,0.00
2019-03-28T02:52:00.141Z,0.00
2019-03-28T02:53:00.124Z,0.00
2019-03-28T02:54:00.114Z,0.00
2019-03-28T02:55:00.529Z,0.00
2019-03-28T02:56:00.091Z,0.00
2019-03-28T02:57:00.080Z,0.00
2019-03-28T02:58:00.071Z,0.00
2019-03-28T02:59:00.059Z,0.00
2019-03-28T03:00:00.047Z,0.00
2019-03-28T03:01:00.036Z,0.00
2019-03-28T03:02:00.029Z,0.00
2019-03-28T03:03:00.026Z,0.00
2019-03-28T03:04:00.003Z,0.00
2019-03-28T03:04:59.993Z,0.00
2019-03-28T03:05:59.981Z,0.00
2019-03-28T03:06:59.972Z,0.00
2019-03-28T03:07:59.960Z,0.00
2019-03-28T03:08:59.949Z,0.00
2019-03-28T03:09:59.938Z,0.00
2019-03-28T03:10:59.928Z,0.00
2019-03-28T03:11:59.968Z,0.00
2019-03-28T03:12:59.905Z,0.00
2019-03-28T03:13:59.895Z,0.00
2019-03-28T03:14:59.896Z,0.00
2019-03-28T03:15:59.877Z,0.00
2019-03-28T03:16:59.861Z,0.00
2019-03-28T03:17:59.853Z,0.00
2019-03-28T03:19:00.083Z,0.00
2019-03-28T03:19:59.829Z,0.00
2019-03-28T03:20:59.820Z,0.00
2019-03-28T03:21:59.806Z,0.00
2019-03-28T03:22:59.797Z,0.00
2019-03-28T03:23:59.785Z,0.00
2019-03-28T03:24:59.774Z,0.00
2019-03-28T03:25:59.769Z,0.00
2019-03-28T03:26:59.754Z,0.00
2019-03-28T03:27:59.748Z,0.00
2019-03-28T03:28:59.730Z,0.00
2019-03-28T03:29:59.726Z,0.00
2019-03-28T03:30:59.725Z,0.00
2019-03-28T03:31:59.703Z,0.00
2019-03-28T03:32:59.688Z,0.00
2019-03-28T03:33:59.697Z,0.00
2019-03-28T03:35:00.647Z,0.00
2019-03-28T03:35:59.655Z,0.00
2019-03-28T03:36:59.649Z,0.00
2019-03-28T03:37:59.641Z,0.00
2019-03-28T03:38:59.625Z,0.00
2019-03-28T03:39:59.618Z,0.00
2019-03-28T03:40:59.601Z,0.00
2019-03-28T03:41:59.593Z,0.00
2019-03-28T03:42:59.582Z,0.00
2019-03-28T03:43:59.572Z,0.00
2019-03-28T03:44:59.559Z,0.00
2019-03-28T03:45:59.545Z,0.00
2019-03-28T03:46:59.537Z,0.00
2019-03-28T03:47:59.526Z,0.00
2019-03-28T03:48:59.518Z,0.00
2019-03-28T03:49:59.510Z,0.00
2019-03-28T03:50:59.496Z,0.00
2019-03-28T03:51:59.483Z,0.00
2019-03-28T03:52:59.476Z,0.00
2019-03-28T03:53:59.462Z,0.00
2019-03-28T03:54:59.452Z,0.00
2019-03-28T03:55:59.439Z,0.00
2019-03-28T03:56:59.429Z,0.00
2019-03-28T03:58:14.384Z,0.00
2019-03-28T03:59:00.404Z,0.00
2019-03-28T03:59:59.395Z,0.00
2019-03-28T04:00:59.394Z,0.00
2019-03-28T04:01:59.373Z,0.00
2019-03-28T04:02:59.367Z,0.00
2019-03-28T04:03:59.362Z,0.00
2019-03-28T04:04:59.341Z,0.00
2019-03-28T04:05:59.332Z,0.00
2019-03-28T04:06:59.328Z,0.00
2019-03-28T04:08:00.081Z,0.00
2019-03-28T04:08:59.298Z,0.00
2019-03-28T04:09:59.290Z,0.00
2019-03-28T04:10:59.278Z,0.00
2019-03-28T04:11:59.271Z,0.00
2019-03-28T04:12:59.255Z,0.00
2019-03-28T04:13:59.244Z,0.00
2019-03-28T04:14:59.244Z,0.00
2019-03-28T04:15:59.226Z,0.00
2019-03-28T04:16:59.214Z,0.00
2019-03-28T04:17:59.200Z,0.00
2019-03-28T04:18:59.190Z,0.00
2019-03-28T04:19:59.179Z,0.00
2019-03-28T04:20:59.169Z,0.00
2019-03-28T04:21:59.156Z,0.00
2019-03-28T04:22:59.147Z,0.00
2019-03-28T04:23:59.135Z,0.00
2019-03-28T04:24:59.125Z,0.00
2019-03-28T04:25:59.113Z,0.00
2019-03-28T04:26:59.104Z,0.00
2019-03-28T04:27:59.091Z,0.00
2019-03-28T04:28:59.081Z,0.00
2019-03-28T04:29:59.076Z,0.00
2019-03-28T04:30:59.061Z,0.00
2019-03-28T04:31:59.048Z,0.00
2019-03-28T04:32:59.036Z,0.00
2019-03-28T04:34:06.589Z,0.00
2019-03-28T04:35:00.014Z,0.00
2019-03-28T04:35:59.007Z,0.00
2019-03-28T04:36:59.003Z,0.00
2019-03-28T04:37:58.983Z,0.00
2019-03-28T04:38:58.974Z,0.00
2019-03-28T04:39:58.961Z,0.00
2019-03-28T04:40:58.950Z,0.00
2019-03-28T04:41:58.954Z,0.00
2019-03-28T04:42:58.930Z,0.00
2019-03-28T04:43:58.918Z,0.00
2019-03-28T04:44:58.908Z,0.00
2019-03-28T04:45:58.897Z,0.00
2019-03-28T04:46:58.885Z,0.00
2019-03-28T04:47:58.877Z,0.00
2019-03-28T04:48:58.871Z,0.00
2019-03-28T04:49:58.893Z,0.00
2019-03-28T04:50:58.842Z,0.00
2019-03-28T04:51:58.831Z,0.00
2019-03-28T04:52:58.822Z,0.00
2019-03-28T04:53:58.814Z,0.00
2019-03-28T04:54:58.798Z,0.00
2019-03-28T04:55:58.788Z,5.62
2019-03-28T04:56:58.779Z,5.62
2019-03-28T04:57:58.767Z,5.62
2019-03-28T04:58:58.756Z,5.62
2019-03-28T04:59:58.749Z,11.25
2019-03-28T05:00:59.454Z,11.25
2019-03-28T05:02:02.935Z,11.25
2019-03-28T05:02:58.713Z,11.25
2019-03-28T05:03:58.702Z,11.25
2019-03-28T05:04:58.690Z,16.88
2019-03-28T05:05:58.685Z,16.88
2019-03-28T05:06:58.668Z,16.88
2019-03-28T05:07:58.657Z,16.88
2019-03-28T05:08:58.649Z,16.88
2019-03-28T05:09:58.637Z,16.88
2019-03-28T05:10:58.626Z,22.50
2019-03-28T05:11:59.421Z,22.50
2019-03-28T05:12:58.602Z,22.50
2019-03-28T05:13:58.593Z,22.50
2019-03-28T05:14:58.582Z,22.50
2019-03-28T05:15:58.569Z,28.12
2019-03-28T05:16:58.563Z,28.12
2019-03-28T05:17:58.551Z,22.50
2019-03-28T05:18:58.540Z,28.12
2019-03-28T05:19:58.528Z,28.12
2019-03-28T05:20:58.517Z,33.75
2019-03-28T05:21:58.505Z,28.12
2019-03-28T05:22:58.495Z,28.12
2019-03-28T05:23:58.483Z,28.12
2019-03-28T05:24:58.724Z,28.12
2019-03-28T05:25:58.462Z,33.75
2019-03-28T05:26:58.456Z,39.38
2019-03-28T05:27:59.323Z,33.75
2019-03-28T05:28:59.406Z,33.75
2019-03-28T05:29:58.421Z,33.75
2019-03-28T05:30:58.407Z,33.75
2019-03-28T05:31:58.398Z,33.75
2019-03-28T05:32:58.388Z,33.75
2019-03-28T05:33:58.376Z,33.75
2019-03-28T05:34:58.369Z,39.38
2019-03-28T05:35:58.354Z,39.38
2019-03-28T05:36:58.344Z,39.38
2019-03-28T05:37:58.332Z,39.38
2019-03-28T05:38:58.325Z,39.38
2019-03-28T05:39:58.316Z,39.38
2019-03-28T05:40:58.315Z,45.00
2019-03-28T05:41:58.293Z,45.00
2019-03-28T05:42:58.278Z,45.00
2019-03-28T05:43:58.278Z,45.00
2019-03-28T05:44:58.258Z,50.62
2019-03-28T05:45:58.249Z,45.00
2019-03-28T05:46:58.279Z,39.38
2019-03-28T05:48:00.316Z,45.00
2019-03-28T05:48:58.265Z,45.00
2019-03-28T05:49:58.203Z,45.00
2019-03-28T05:50:58.193Z,50.62
2019-03-28T05:51:58.235Z,45.00
2019-03-28T05:52:58.174Z,45.00
2019-03-28T05:53:58.272Z,39.38
2019-03-28T05:54:58.149Z,45.00
2019-03-28T05:55:58.137Z,45.00
2019-03-28T05:56:58.126Z,50.62
2019-03-28T05:57:58.116Z,56.25
2019-03-28T05:59:10.173Z,45.00
2019-03-28T05:59:59.129Z,50.62
2019-03-28T06:00:58.085Z,61.88
2019-03-28T06:01:58.330Z,56.25
2019-03-28T06:02:58.065Z,56.25
2019-03-28T06:03:58.052Z,56.25
2019-03-28T06:04:58.086Z,61.88
2019-03-28T06:05:58.059Z,61.88
2019-03-28T06:06:58.073Z,61.88
2019-03-28T06:07:58.112Z,61.88
2019-03-28T06:08:58.146Z,61.88
2019-03-28T06:09:57.991Z,67.50
2019-03-28T06:10:57.977Z,67.50
2019-03-28T06:11:57.963Z,61.88
2019-03-28T06:12:57.955Z,61.88
2019-03-28T06:13:57.944Z,61.88
2019-03-28T06:14:57.933Z,67.50
2019-03-28T06:15:57.921Z,61.88
2019-03-28T06:16:57.910Z,61.88
2019-03-28T06:17:57.898Z,73.12
2019-03-28T06:18:57.888Z,67.50
2019-03-28T06:19:58.180Z,61.88
2019-03-28T06:20:59.549Z,61.88
2019-03-28T06:21:57.855Z,61.88
2019-03-28T06:22:57.844Z,73.12
2019-03-28T06:23:57.835Z,73.12
2019-03-28T06:24:58.043Z,78.75
2019-03-28T06:25:57.892Z,78.75
2019-03-28T06:26:57.866Z,78.75
2019-03-28T06:27:57.885Z,84.38
2019-03-28T06:28:57.936Z,90.00
2019-03-28T06:29:57.800Z,90.00
2019-03-28T06:30:57.758Z,90.00
2019-03-28T06:31:57.748Z,101.25
2019-03-28T06:32:58.982Z,95.62
2019-03-28T06:33:57.726Z,118.12
2019-03-28T06:34:57.714Z,118.12
2019-03-28T06:35:57.705Z,112.50
2019-03-28T06:36:57.693Z,112.50
2019-03-28T06:37:58.467Z,95.62
2019-03-28T06:38:57.670Z,90.00
2019-03-28T06:39:57.661Z,95.62
2019-03-28T06:40:57.649Z,106.88
2019-03-28T06:41:57.639Z,95.62
2019-03-28T06:42:57.629Z,95.62
2019-03-28T06:43:57.616Z,78.75
2019-03-28T06:44:57.604Z,73.12
2019-03-28T06:45:57.594Z,73.12
2019-03-28T06:46:57.583Z,67.50
2019-03-28T06:47:57.572Z,73.12
2019-03-28T06:48:57.563Z,73.12
2019-03-28T06:49:57.556Z,78.75
2019-03-28T06:50:57.539Z,84.38
2019-03-28T06:51:57.533Z,84.38
2019-03-28T06:52:57.521Z,73.12
2019-03-28T06:53:57.590Z,73.12
2019-03-28T06:54:57.498Z,78.75
2019-03-28T06:55:57.487Z,78.75
2019-03-28T06:56:57.475Z,73.12
2019-03-28T06:57:57.467Z,84.38
2019-03-28T06:58:57.455Z,101.25
2019-03-28T06:59:57.445Z,95.62
2019-03-28T07:00:57.433Z,90.00
2019-03-28T07:01:57.424Z,84.38
2019-03-28T07:02:57.421Z,90.00
2019-03-28T07:03:57.401Z,84.38
2019-03-28T07:04:57.409Z,90.00
2019-03-28T07:05:57.380Z,95.62
2019-03-28T07:06:57.367Z,112.50
2019-03-28T07:07:58.310Z,140.62
2019-03-28T07:08:57.348Z,129.38
2019-03-28T07:09:57.335Z,135.00
2019-03-28T07:10:58.151Z,140.62
2019-03-28T07:11:57.318Z,163.12
2019-03-28T07:12:57.313Z,168.75
2019-03-28T07:13:57.296Z,168.75
2019-03-28T07:14:59.563Z,202.50
2019-03-28T07:15:57.272Z,180.00
2019-03-28T07:16:57.264Z,225.00
2019-03-28T07:17:57.251Z,225.00
2019-03-28T07:18:57.240Z,225.00
2019-03-28T07:19:57.228Z,219.38
2019-03-28T07:20:57.217Z,230.62
2019-03-28T07:21:57.206Z,247.50
2019-03-28T07:22:57.196Z,247.50
2019-03-28T07:23:57.185Z,230.62
2019-03-28T07:24:57.174Z,264.38
2019-03-28T07:25:57.164Z,236.25
2019-03-28T07:26:57.152Z,258.75
2019-03-28T07:27:57.141Z,258.75
2019-03-28T07:28:57.131Z,292.50
2019-03-28T07:29:57.120Z,281.25
2019-03-28T07:30:57.109Z,241.88
2019-03-28T07:31:57.102Z,213.75
2019-03-28T07:32:57.091Z,202.50
2019-03-28T07:33:57.077Z,202.50
2019-03-28T07:34:57.067Z,191.25
2019-03-28T07:35:57.055Z,202.50
2019-03-28T07:36:57.045Z,230.62
2019-03-28T07:37:57.032Z,230.62
2019-03-28T07:38:57.026Z,202.50
2019-03-28T07:39:57.011Z,191.25
2019-03-28T07:40:57.003Z,163.12
2019-03-28T07:41:56.989Z,174.38
2019-03-28T07:42:56.979Z,202.50
2019-03-28T07:43:56.969Z,196.88
2019-03-28T07:44:58.112Z,196.88
2019-03-28T07:45:56.954Z,208.12
2019-03-28T07:46:56.936Z,180.00
2019-03-28T07:47:56.926Z,253.12
2019-03-28T07:48:56.916Z,309.38
2019-03-28T07:49:56.904Z,247.50
2019-03-28T07:50:56.893Z,225.00
2019-03-28T07:51:56.884Z,230.62
2019-03-28T07:52:56.875Z,241.88
2019-03-28T07:53:56.867Z,219.38
2019-03-28T07:54:56.861Z,303.75
2019-03-28T07:55:57.496Z,270.00
2019-03-28T07:56:56.828Z,208.12
2019-03-28T07:57:56.818Z,196.88
2019-03-28T07:58:56.807Z,213.75
2019-03-28T08:00:04.236Z,208.12
2019-03-28T08:00:57.783Z,258.75
2019-03-28T08:01:56.774Z,196.88
2019-03-28T08:02:58.447Z,202.50
2019-03-28T08:03:56.753Z,241.88
2019-03-28T08:04:56.742Z,230.62
2019-03-28T08:05:56.731Z,241.88
2019-03-28T08:06:56.721Z,230.62
2019-03-28T08:07:56.718Z,241.88
2019-03-28T08:08:56.722Z,320.62
2019-03-28T08:09:56.687Z,348.75
2019-03-28T08:10:56.680Z,399.38
2019-03-28T08:11:56.687Z,348.75
2019-03-28T08:12:56.673Z,376.88
2019-03-28T08:13:56.645Z,343.12
2019-03-28T08:14:56.634Z,292.50
2019-03-28T08:15:56.624Z,388.12
2019-03-28T08:16:56.613Z,483.75
2019-03-28T08:17:56.602Z,444.38
2019-03-28T08:18:56.590Z,410.62
2019-03-28T08:19:56.580Z,444.38
2019-03-28T08:20:56.570Z,489.38
2019-03-28T08:21:56.561Z,433.12
2019-03-28T08:22:56.559Z,444.38
2019-03-28T08:23:56.541Z,376.88
2019-03-28T08:24:56.526Z,337.50
2019-03-28T08:25:56.517Z,315.00
2019-03-28T08:26:56.511Z,292.50
2019-03-28T08:27:57.769Z,320.62
2019-03-28T08:28:56.481Z,343.12
2019-03-28T08:29:57.937Z,303.75
2019-03-28T08:30:56.458Z,292.50
2019-03-28T08:31:56.448Z,292.50
2019-03-28T08:32:56.441Z,303.75
2019-03-28T08:33:56.425Z,320.62
2019-03-28T08:34:56.416Z,337.50
2019-03-28T08:35:56.408Z,320.62
2019-03-28T08:36:56.404Z,264.38
2019-03-28T08:37:56.382Z,253.12
2019-03-28T08:38:56.376Z,309.38
2019-03-28T08:39:56.362Z,354.38
2019-03-28T08:40:56.349Z,281.25
2019-03-28T08:41:56.338Z,241.88
2019-03-28T08:42:56.327Z,225.00
2019-03-28T08:43:56.333Z,196.88
2019-03-28T08:44:56.305Z,196.88
2019-03-28T08:45:56.309Z,191.25
2019-03-28T08:46:56.285Z,213.75
2019-03-28T08:47:56.273Z,213.75
2019-03-28T08:48:56.262Z,202.50
2019-03-28T08:49:58.756Z,208.12
2019-03-28T08:50:56.239Z,196.88
2019-03-28T08:51:56.227Z,196.88
2019-03-28T08:52:56.218Z,247.50
2019-03-28T08:53:56.206Z,286.88
2019-03-28T08:54:56.193Z,264.38
2019-03-28T08:55:56.183Z,343.12
2019-03-28T08:56:56.173Z,331.88
2019-03-28T08:57:56.163Z,331.88
2019-03-28T08:58:56.150Z,315.00
2019-03-28T08:59:56.146Z,292.50
2019-03-28T09:00:56.129Z,241.88
2019-03-28T09:01:56.116Z,219.38
2019-03-28T09:02:56.221Z,253.12
2019-03-28T09:03:56.097Z,225.00
2019-03-28T09:04:56.089Z,298.12
2019-03-28T09:05:56.075Z,343.12
2019-03-28T09:06:56.063Z,315.00
2019-03-28T09:07:56.053Z,247.50
2019-03-28T09:08:56.040Z,241.88
2019-03-28T09:09:56.033Z,247.50
2019-03-28T09:10:56.020Z,253.12
2019-03-28T09:11:56.010Z,281.25
2019-03-28T09:12:55.997Z,320.62
2019-03-28T09:13:55.995Z,343.12
2019-03-28T09:14:55.976Z,303.75
2019-03-28T09:15:55.972Z,230.62
2019-03-28T09:16:55.954Z,213.75
2019-03-28T09:17:55.943Z,275.62
2019-03-28T09:18:55.931Z,309.38
2019-03-28T09:19:55.922Z,286.88
2019-03-28T09:20:55.909Z,298.12
2019-03-28T09:21:55.909Z,331.88
2019-03-28T09:22:55.888Z,382.50
2019-03-28T09:23:55.877Z,371.25
2019-03-28T09:24:55.866Z,427.50
2019-03-28T09:25:55.856Z,478.12
2019-03-28T09:26:55.843Z,450.00
2019-03-28T09:27:55.834Z,444.38
2019-03-28T09:28:55.821Z,427.50
2019-03-28T09:29:55.812Z,472.50
2019-03-28T09:30:55.800Z,540.00
2019-03-28T09:31:55.788Z,624.38
2019-03-28T09:32:55.780Z,613.12
2019-03-28T09:33:55.766Z,613.12
2019-03-28T09:34:55.756Z,590.62
2019-03-28T09:35:55.745Z,489.38
2019-03-28T09:36:55.744Z,371.25
2019-03-28T09:37:55.724Z,298.12
2019-03-28T09:38:55.716Z,315.00
2019-03-28T09:39:55.702Z,303.75
2019-03-28T09:40:55.691Z,326.25
2019-03-28T09:41:55.681Z,444.38
2019-03-28T09:42:55.669Z,562.50
2019-03-28T09:43:56.081Z,703.12
2019-03-28T09:44:56.361Z,838.12
2019-03-28T09:45:55.648Z,843.75
2019-03-28T09:46:55.858Z,585.00
2019-03-28T09:47:55.615Z,354.38
2019-03-28T09:48:55.604Z,298.12
2019-03-28T09:49:55.592Z,286.88
2019-03-28T09:50:55.588Z,264.38
2019-03-28T09:51:55.571Z,241.88
2019-03-28T09:52:55.560Z,253.12
2019-03-28T09:53:55.549Z,275.62
2019-03-28T09:54:55.543Z,365.62
2019-03-28T09:55:55.527Z,376.88
2019-03-28T09:56:55.517Z,331.88
2019-03-28T09:57:55.509Z,388.12
2019-03-28T09:58:55.494Z,444.38
2019-03-28T09:59:55.484Z,388.12
2019-03-28T10:01:02.888Z,303.75
2019-03-28T10:01:56.461Z,258.75
2019-03-28T10:02:55.457Z,241.88
2019-03-28T10:03:55.445Z,258.75
2019-03-28T10:04:55.430Z,320.62
2019-03-28T10:05:55.421Z,382.50
2019-03-28T10:06:55.409Z,376.88
2019-03-28T10:07:55.397Z,331.88
2019-03-28T10:08:55.391Z,309.38
2019-03-28T10:09:55.417Z,399.38
2019-03-28T10:10:55.364Z,427.50
2019-03-28T10:11:55.353Z,399.38
2019-03-28T10:12:55.344Z,416.25
2019-03-28T10:13:55.331Z,410.62
2019-03-28T10:14:55.321Z,376.88
2019-03-28T10:15:57.406Z,354.38
2019-03-28T10:16:55.299Z,360.00
2019-03-28T10:17:55.289Z,371.25
2019-03-28T10:18:55.278Z,376.88
2019-03-28T10:19:55.267Z,376.88
2019-03-28T10:20:55.261Z,343.12
2019-03-28T10:21:55.245Z,343.12
2019-03-28T10:22:55.235Z,416.25
2019-03-28T10:23:55.222Z,444.38
2019-03-28T10:24:55.212Z,382.50
2019-03-28T10:25:55.200Z,365.62
2019-03-28T10:26:55.191Z,331.88
2019-03-28T10:27:55.194Z,275.62
2019-03-28T10:28:55.171Z,236.25
2019-03-28T10:29:55.157Z,225.00
2019-03-28T10:30:55.147Z,225.00
2019-03-28T10:31:55.138Z,236.25
2019-03-28T10:32:55.125Z,343.12
2019-03-28T10:33:55.113Z,433.12
2019-03-28T10:34:55.102Z,461.25
2019-03-28T10:35:55.092Z,433.12
2019-03-28T10:36:55.081Z,343.12
2019-03-28T10:37:55.070Z,281.25
2019-03-28T10:38:55.059Z,399.38
2019-03-28T10:39:55.050Z,523.12
2019-03-28T10:40:55.038Z,483.75
2019-03-28T10:41:55.092Z,331.88
2019-03-28T10:42:55.016Z,281.25
2019-03-28T10:43:55.004Z,292.50
2019-03-28T10:44:54.994Z,320.62
2019-03-28T10:45:54.985Z,292.50
2019-03-28T10:46:54.975Z,275.62
2019-03-28T10:47:54.992Z,309.38
2019-03-28T10:48:54.952Z,337.50
2019-03-28T10:49:54.939Z,343.12
2019-03-28T10:50:54.931Z,337.50
2019-03-28T10:51:54.918Z,309.38
2019-03-28T10:52:54.918Z,258.75
2019-03-28T10:53:54.899Z,247.50
2019-03-28T10:54:54.893Z,298.12
2019-03-28T10:55:54.890Z,360.00
2019-03-28T10:56:57.924Z,376.88
2019-03-28T10:57:54.852Z,382.50
2019-03-28T10:58:54.846Z,444.38
2019-03-28T10:59:54.834Z,613.12
2019-03-28T11:00:55.838Z,748.12
2019-03-28T11:01:54.819Z,928.12
2019-03-28T11:02:54.836Z,973.12
2019-03-28T11:03:54.786Z,900.00
2019-03-28T11:04:54.776Z,675.00
2019-03-28T11:05:54.766Z,511.88
2019-03-28T11:06:54.763Z,416.25
2019-03-28T11:07:54.748Z,326.25
2019-03-28T11:08:54.738Z,281.25
2019-03-28T11:09:54.732Z,247.50
2019-03-28T11:10:54.711Z,230.62
2019-03-28T11:11:54.703Z,219.38
2019-03-28T11:12:54.695Z,225.00
2019-03-28T11:13:54.682Z,236.25
2019-03-28T11:14:54.672Z,230.62
2019-03-28T11:15:54.658Z,219.38
2019-03-28T11:16:55.953Z,208.12
2019-03-28T11:17:54.644Z,219.38
2019-03-28T11:18:54.631Z,219.38
2019-03-28T11:19:56.149Z,213.75
2019-03-28T11:20:54.615Z,208.12
2019-03-28T11:21:54.592Z,202.50
2019-03-28T11:22:54.584Z,191.25
2019-03-28T11:23:54.571Z,180.00
2019-03-28T11:24:54.559Z,174.38
2019-03-28T11:25:57.222Z,180.00
2019-03-28T11:26:54.538Z,174.38
2019-03-28T11:27:54.526Z,191.25
2019-03-28T11:28:54.520Z,202.50
2019-03-28T11:29:54.506Z,219.38
2019-03-28T11:30:54.498Z,213.75
2019-03-28T11:31:54.484Z,213.75
2019-03-28T11:32:54.473Z,208.12
2019-03-28T11:33:54.461Z,208.12
2019-03-28T11:34:54.457Z,208.12
2019-03-28T11:35:54.440Z,202.50
2019-03-28T11:36:54.428Z,202.50
2019-03-28T11:37:54.780Z,208.12
2019-03-28T11:38:54.967Z,219.38
2019-03-28T11:39:54.402Z,208.12
2019-03-28T11:40:54.397Z,196.88
2019-03-28T11:41:54.373Z,191.25
2019-03-28T11:42:54.361Z,185.62
2019-03-28T11:43:54.352Z,174.38
2019-03-28T11:44:54.344Z,168.75
2019-03-28T11:45:54.331Z,168.75
2019-03-28T11:46:54.319Z,157.50
2019-03-28T11:47:54.306Z,157.50
2019-03-28T11:48:54.310Z,180.00
2019-03-28T11:49:54.284Z,196.88
2019-03-28T11:50:54.273Z,202.50
2019-03-28T11:51:54.281Z,213.75
2019-03-28T11:52:54.264Z,270.00
2019-03-28T11:53:54.240Z,281.25
2019-03-28T11:54:54.232Z,258.75
2019-03-28T11:55:54.219Z,247.50
2019-03-28T11:56:54.208Z,247.50
2019-03-28T11:57:56.444Z,258.75
2019-03-28T11:58:54.191Z,286.88
2019-03-28T11:59:54.187Z,275.62
2019-03-28T12:00:54.164Z,281.25
2019-03-28T12:02:00.019Z,258.75
2019-03-28T12:02:55.139Z,208.12
2019-03-28T12:03:54.131Z,168.75
2019-03-28T12:04:54.117Z,168.75
2019-03-28T12:05:54.188Z,202.50
2019-03-28T12:06:54.098Z,303.75
2019-03-28T12:07:54.086Z,365.62
2019-03-28T12:08:55.908Z,343.12
2019-03-28T12:09:54.071Z,281.25
2019-03-28T12:10:54.052Z,247.50
2019-03-28T12:11:54.042Z,241.88
2019-03-28T12:12:54.030Z,270.00
2019-03-28T12:13:54.033Z,281.25
2019-03-28T12:14:54.030Z,275.62
2019-03-28T12:15:54.008Z,270.00
2019-03-28T12:16:53.999Z,275.62
2019-03-28T12:17:53.995Z,298.12
2019-03-28T12:18:53.966Z,326.25
2019-03-28T12:19:53.962Z,337.50
2019-03-28T12:20:53.954Z,343.12
2019-03-28T12:21:53.939Z,326.25
2019-03-28T12:22:56.080Z,331.88
2019-03-28T12:23:53.921Z,343.12
2019-03-28T12:24:53.902Z,348.75
2019-03-28T12:25:53.889Z,343.12
2019-03-28T12:26:53.886Z,343.12
2019-03-28T12:27:53.868Z,348.75
2019-03-28T12:28:53.857Z,365.62
2019-03-28T12:29:53.849Z,354.38
2019-03-28T12:30:53.844Z,331.88
2019-03-28T12:31:53.823Z,348.75
2019-03-28T12:32:53.819Z,337.50
2019-03-28T12:33:53.804Z,303.75
2019-03-28T12:34:53.802Z,281.25
2019-03-28T12:35:53.795Z,281.25
2019-03-28T12:36:53.769Z,298.12
2019-03-28T12:37:53.758Z,286.88
2019-03-28T12:38:54.636Z,281.25
2019-03-28T12:39:53.739Z,275.62
2019-03-28T12:40:53.724Z,270.00
2019-03-28T12:41:53.717Z,258.75
2019-03-28T12:42:53.707Z,275.62
2019-03-28T12:43:53.691Z,298.12
2019-03-28T12:44:57.336Z,303.75
2019-03-28T12:45:53.695Z,298.12
2019-03-28T12:46:53.661Z,298.12
2019-03-28T12:47:53.650Z,292.50
2019-03-28T12:48:53.639Z,275.62
2019-03-28T12:49:53.627Z,303.75
2019-03-28T12:50:59.066Z,309.38